Aérodrome :
LOGIN :

S'inscrire | Disclaimer

   EN    FR    IT 

 










Légende :    VFR   VFR Marginal   IFR   IFR Intensif   IFR Très Intensif
Visi : 
Plafond : 
>= 8 km
>= 3000ft
5 à 8 km
1000 à 3000 ft
1500m à 5 km
500 à 1000 ft
800 à 1500m
200 à 500 ft
< 800m
< 200 ft
Symboles :   Orages  Brouillard  Fortes neiges  Fortes précipitations  Vent > 20 kt
SIGMETs :   Divers  Orages  Givrage  Turbulence  Onde Orograph.  Cendres Volcan.







- Altitude de l'aérodrome : 17 ft
- Code IATA : CPH


EKCH - København - Kastrup (Copenhagen)

METARs EXPIRÉS :
  • 241420Z 27011KT 9999 -SHRA FEW016 BKN054 17/15 Q1005 TEMPO 4000 SHRA BKN014 BKN020CB
  • 241350Z 25010KT 9999 -SHRA FEW043 BKN054 17/15 Q1005 TEMPO 4000 SHRA BKN014 BKN020CB
  • 241320Z 26010KT 9999 -SHRA FEW009 SCT023 BKN048 17/15 Q1005 TEMPO 4000 SHRA BKN014 BKN020CB
  • 241250Z 27011KT 9999 -SHRA FEW009 SCT012 BKN041 16/15 Q1005 TEMPO 4000 SHRA BKN014 BKN020CB
  • 241223Z 30013KT 5000 -SHRA FEW004 SCT020CB BKN038 15/14 Q1005 BECMG NSW BKN030
  • 241150Z 24019KT 9999 FEW018 SCT025 BKN054 19/15 Q1004 TEMPO 4000 RA BKN014

TAF AMD TAF EKCH
Valide du 24 à 12h jusqu'au 25 à 12h UTC


241223Z 2412/2512 24012KT 9999 BKN030
TEMPO 2412/2415 3000 SHRA BKN014 BKN020CB
TEMPO 2503/2512 SCT030TCU
Pas de NOTAMs connus pour ce terrain.



MET'MAP, la Météo Aéronautique d'un coup d'oeil ! - Copyright ORBIFLY Décembre 2007 - Disclaimer

ORBIFLY MET'MAP TEAM :

Programmation & Développement : Alexandra Zaïnal
Conception & Développement : Baudouin d'Aumeries
Co-Programmation & Développement : Marc-Olivier Méhu
Soutien technique & logistique : Manuel Goepfert

Contact : metmap@orbifly.com




SOURCES & CREDITS :

   NOAA